Time,TemperatureF,DewpointF,PressureIn,WindDirection,WindDirectionDegrees,WindSpeedMPH,WindSpeedGustMPH,Humidity,HourlyPrecipIn,Conditions,Clouds,dailyrainin,SoftwareType,DateUTC
2013-11-14 00:02:00,27.9,17.0,30.07,SSW,202,2.7,-999.0,63,-99.99,,,0.00,Acu-Link.com,2013-11-14 05:02:00,
2013-11-14 00:18:00,28.0,16.7,30.07,SSE,157,3.7,-999.0,62,-99.99,,,0.00,Acu-Link.com,2013-11-14 05:18:00,
2013-11-14 00:33:00,27.9,16.6,30.06,WSW,247,6.8,-999.0,62,-99.99,,,0.00,Acu-Link.com,2013-11-14 05:33:00,
2013-11-14 00:48:00,28.0,16.7,30.06,WSW,247,2.7,-999.0,62,-99.99,,,0.00,Acu-Link.com,2013-11-14 05:48:00,
2013-11-14 01:03:00,28.0,17.1,30.05,SW,225,3.7,-999.0,63,-99.99,,,0.00,Acu-Link.com,2013-11-14 06:03:00,
2013-11-14 01:18:00,28.0,17.1,30.05,West,270,2.7,-999.0,63,-99.99,,,0.00,Acu-Link.com,2013-11-14 06:18:00,
2013-11-14 01:34:00,27.9,17.3,30.04,South,180,2.2,-999.0,64,-99.99,,,0.00,Acu-Link.com,2013-11-14 06:34:00,
2013-11-14 01:49:00,28.0,17.4,30.05,WSW,247,2.7,-999.0,64,-99.99,,,0.00,Acu-Link.com,2013-11-14 06:49:00,
2013-11-14 02:04:00,28.0,17.4,30.04,ENE,67,3.7,-999.0,64,-99.99,,,0.00,Acu-Link.com,2013-11-14 07:04:00,
2013-11-14 02:19:00,28.0,17.8,30.04,SSW,202,1.7,-999.0,65,-99.99,,,0.00,Acu-Link.com,2013-11-14 07:19:00,
2013-11-14 02:34:00,28.6,18.4,30.04,SSW,202,2.7,-999.0,65,-99.99,,,0.00,Acu-Link.com,2013-11-14 07:34:00,
2013-11-14 02:50:00,28.6,18.4,30.04,SSW,202,4.7,-999.0,65,-99.99,,,0.00,Acu-Link.com,2013-11-14 07:50:00,
2013-11-14 03:05:00,28.8,18.9,30.03,SSW,202,4.7,-999.0,66,-99.99,,,0.00,Acu-Link.com,2013-11-14 08:05:00,
2013-11-14 03:20:00,28.9,18.6,30.02,SSW,202,4.7,-999.0,65,-99.99,,,0.00,Acu-Link.com,2013-11-14 08:20:00,
2013-11-14 03:35:00,28.9,18.6,30.01,SSW,202,5.3,-999.0,65,-99.99,,,0.00,Acu-Link.com,2013-11-14 08:35:00,
2013-11-14 03:51:00,29.1,19.2,30.01,WSW,247,2.7,-999.0,66,-99.99,,,0.00,Acu-Link.com,2013-11-14 08:51:00,
2013-11-14 04:06:00,29.3,19.0,30.02,SW,225,6.3,-999.0,65,-99.99,,,0.00,Acu-Link.com,2013-11-14 09:06:00,
2013-11-14 04:21:00,29.3,19.0,30.01,WNW,292,4.7,-999.0,65,-99.99,,,0.00,Acu-Link.com,2013-11-14 09:21:00,
2013-11-14 04:36:00,29.1,18.8,30.01,West,270,4.2,-999.0,65,-99.99,,,0.00,Acu-Link.com,2013-11-14 09:36:00,
2013-11-14 04:51:00,29.1,19.5,30.02,SSW,202,2.7,-999.0,67,-99.99,,,0.00,Acu-Link.com,2013-11-14 09:51:00,
2013-11-14 05:07:00,29.5,19.6,30.01,South,180,1.1,-999.0,66,-99.99,,,0.00,Acu-Link.com,2013-11-14 10:07:00,
2013-11-14 05:22:00,29.8,19.9,30.00,SSW,202,2.7,-999.0,66,-99.99,,,0.00,Acu-Link.com,2013-11-14 10:22:00,
2013-11-14 05:37:00,29.8,19.9,30.00,SW,225,4.7,-999.0,66,-99.99,,,0.00,Acu-Link.com,2013-11-14 10:37:00,
2013-11-14 05:52:00,30.0,19.7,30.01,WSW,247,2.7,-999.0,65,-99.99,,,0.00,Acu-Link.com,2013-11-14 10:52:00,
2013-11-14 06:07:00,30.2,19.9,30.01,West,270,4.2,-999.0,65,-99.99,,,0.00,Acu-Link.com,2013-11-14 11:07:00,
2013-11-14 06:23:00,30.2,20.2,30.01,WSW,247,4.2,-999.0,66,-99.99,,,0.00,Acu-Link.com,2013-11-14 11:23:00,
2013-11-14 06:38:00,29.8,19.9,30.01,SSW,202,4.7,-999.0,66,-99.99,,,0.00,Acu-Link.com,2013-11-14 11:38:00,
2013-11-14 06:53:00,29.5,19.9,30.02,SSW,202,3.2,-999.0,67,-99.99,,,0.00,Acu-Link.com,2013-11-14 11:53:00,
2013-11-14 07:08:00,29.3,19.7,30.02,East,90,2.7,-999.0,67,-99.99,,,0.00,Acu-Link.com,2013-11-14 12:08:00,
2013-11-14 07:23:00,29.3,19.7,30.03,SW,225,0.0,-999.0,67,-99.99,,,0.00,Acu-Link.com,2013-11-14 12:23:00,
2013-11-14 07:39:00,30.2,20.2,30.02,SSW,202,3.2,-999.0,66,-99.99,,,0.00,Acu-Link.com,2013-11-14 12:39:00,
2013-11-14 07:54:00,30.6,20.3,30.01,SSW,202,3.7,-999.0,65,-99.99,,,0.00,Acu-Link.com,2013-11-14 12:54:00,
2013-11-14 08:09:00,31.1,20.4,30.03,SW,225,3.2,-999.0,64,-99.99,,,0.00,Acu-Link.com,2013-11-14 13:09:00,
2013-11-14 08:24:00,31.8,20.3,30.01,SSW,202,4.7,-999.0,62,-99.99,,,0.00,Acu-Link.com,2013-11-14 13:24:00,
2013-11-14 08:40:00,32.7,20.4,30.01,SW,225,2.7,-999.0,60,-99.99,,,0.00,Acu-Link.com,2013-11-14 13:40:00,
2013-11-14 08:55:00,34.5,20.0,30.02,SW,225,4.7,-999.0,55,-99.99,,,0.00,Acu-Link.com,2013-11-14 13:55:00,
2013-11-14 09:10:00,35.6,20.2,30.02,WSW,247,2.7,-999.0,53,-99.99,,,0.00,Acu-Link.com,2013-11-14 14:10:00,
2013-11-14 09:25:00,36.7,20.3,30.01,South,180,4.2,-999.0,51,-99.99,,,0.00,Acu-Link.com,2013-11-14 14:25:00,
2013-11-14 09:40:00,37.8,20.4,30.01,West,270,2.7,-999.0,49,-99.99,,,0.00,Acu-Link.com,2013-11-14 14:40:00,
2013-11-14 09:56:00,39.2,20.2,30.01,NE,45,6.3,-999.0,46,-99.99,,,0.00,Acu-Link.com,2013-11-14 14:56:00,
2013-11-14 10:11:00,40.5,19.2,30.00,SW,225,2.2,-999.0,42,-99.99,,,0.00,Acu-Link.com,2013-11-14 15:11:00,
2013-11-14 10:26:00,41.5,19.0,30.00,SSE,157,5.3,-999.0,40,-99.99,,,0.00,Acu-Link.com,2013-11-14 15:26:00,
2013-11-14 10:42:00,42.6,20.0,30.00,SSW,202,4.7,-999.0,40,-99.99,,,0.00,Acu-Link.com,2013-11-14 15:42:00,
2013-11-14 10:57:00,43.3,19.4,30.00,South,180,4.2,-999.0,38,-99.99,,,0.00,Acu-Link.com,2013-11-14 15:57:00,
2013-11-14 11:12:00,43.7,19.8,30.00,ESE,112,9.4,-999.0,38,-99.99,,,0.00,Acu-Link.com,2013-11-14 16:12:00,
2013-11-14 11:27:00,45.0,22.1,29.99,NNE,22,3.2,-999.0,40,-99.99,,,0.00,Acu-Link.com,2013-11-14 16:27:00,
2013-11-14 11:42:00,45.7,21.6,29.98,South,180,4.7,-999.0,38,-99.99,,,0.00,Acu-Link.com,2013-11-14 16:42:00,
2013-11-14 11:58:00,46.9,22.0,29.97,SW,225,8.9,-999.0,37,-99.99,,,0.00,Acu-Link.com,2013-11-14 16:58:00,
2013-11-14 12:13:00,46.6,22.4,29.97,SW,225,3.2,-999.0,38,-99.99,,,0.00,Acu-Link.com,2013-11-14 17:13:00,
2013-11-14 12:28:00,46.8,21.9,29.97,NNE,22,4.7,-999.0,37,-99.99,,,0.00,Acu-Link.com,2013-11-14 17:28:00,
2013-11-14 12:43:00,47.5,22.5,29.96,NE,45,4.2,-999.0,37,-99.99,,,0.00,Acu-Link.com,2013-11-14 17:43:00,
2013-11-14 12:58:00,47.8,22.8,29.96,SW,225,5.8,-999.0,37,-99.99,,,0.00,Acu-Link.com,2013-11-14 17:58:00,
2013-11-14 13:14:00,48.4,23.3,29.96,SSW,202,5.3,-999.0,37,-99.99,,,0.00,Acu-Link.com,2013-11-14 18:14:00,
2013-11-14 13:29:00,48.7,23.6,29.96,SW,225,5.3,-999.0,37,-99.99,,,0.00,Acu-Link.com,2013-11-14 18:29:00,
2013-11-14 13:44:00,49.3,24.1,29.96,South,180,4.2,-999.0,37,-99.99,,,0.00,Acu-Link.com,2013-11-14 18:44:00,
2013-11-14 13:59:00,50.9,24.9,29.96,East,90,2.2,-999.0,36,-99.99,,,0.00,Acu-Link.com,2013-11-14 18:59:00,
2013-11-14 14:14:00,50.9,24.9,29.96,East,90,2.2,-999.0,36,-99.99,,,0.00,Acu-Link.com,2013-11-14 19:14:00,
2013-11-14 14:30:00,51.6,24.9,29.96,NE,45,4.7,-999.0,35,-99.99,,,0.00,Acu-Link.com,2013-11-14 19:30:00,
2013-11-14 14:45:00,52.2,25.4,29.97,WSW,247,2.7,-999.0,35,-99.99,,,0.00,Acu-Link.com,2013-11-14 19:45:00,
2013-11-14 15:00:00,51.8,25.0,29.96,SW,225,2.7,-999.0,35,-99.99,,,0.00,Acu-Link.com,2013-11-14 20:00:00,
2013-11-14 15:15:00,51.1,25.1,29.97,SSE,157,0.0,-999.0,36,-99.99,,,0.00,Acu-Link.com,2013-11-14 20:15:00,
2013-11-14 15:30:00,50.7,24.7,29.97,WSW,247,2.2,-999.0,36,-99.99,,,0.00,Acu-Link.com,2013-11-14 20:30:00,
2013-11-14 15:46:00,49.1,24.6,29.98,SW,225,2.2,-999.0,38,-99.99,,,0.00,Acu-Link.com,2013-11-14 20:46:00,
2013-11-14 16:01:00,47.8,23.4,29.98,SW,225,2.2,-999.0,38,-99.99,,,0.00,Acu-Link.com,2013-11-14 21:01:00,
2013-11-14 16:16:00,46.6,23.0,29.98,SW,225,1.7,-999.0,39,-99.99,,,0.00,Acu-Link.com,2013-11-14 21:16:00,
2013-11-14 16:31:00,45.3,23.6,29.99,ESE,112,0.0,-999.0,42,-99.99,,,0.00,Acu-Link.com,2013-11-14 21:31:00,
2013-11-14 16:47:00,44.8,23.1,29.97,SW,225,1.1,-999.0,42,-99.99,,,0.00,Acu-Link.com,2013-11-14 21:47:00,
2013-11-14 17:02:00,44.2,22.6,29.99,SSW,202,0.0,-999.0,42,-99.99,,,0.00,Acu-Link.com,2013-11-14 22:02:00,
2013-11-14 17:17:00,43.9,22.3,29.99,South,180,1.7,-999.0,42,-99.99,,,0.00,Acu-Link.com,2013-11-14 22:17:00,
2013-11-14 17:32:00,43.5,22.5,30.00,SSE,157,2.7,-999.0,43,-99.99,,,0.00,Acu-Link.com,2013-11-14 22:32:00,
2013-11-14 17:48:00,43.5,21.9,30.00,SSW,202,2.7,-999.0,42,-99.99,,,0.00,Acu-Link.com,2013-11-14 22:48:00,
2013-11-14 18:03:00,43.5,21.9,30.00,SW,225,3.2,-999.0,42,-99.99,,,0.00,Acu-Link.com,2013-11-14 23:03:00,
2013-11-14 18:18:00,43.0,22.1,30.00,WNW,292,2.7,-999.0,43,-99.99,,,0.00,Acu-Link.com,2013-11-14 23:18:00,
2013-11-14 18:33:00,42.3,22.0,30.01,SE,135,0.0,-999.0,44,-99.99,,,0.00,Acu-Link.com,2013-11-14 23:33:00,
2013-11-14 18:49:00,41.9,21.6,30.01,SW,225,2.7,-999.0,44,-99.99,,,0.00,Acu-Link.com,2013-11-14 23:49:00,
2013-11-14 19:04:00,41.9,21.1,30.02,SSW,202,0.0,-999.0,43,-99.99,,,0.00,Acu-Link.com,2013-11-15 00:04:00,
2013-11-14 19:19:00,41.5,21.2,30.02,West,270,1.7,-999.0,44,-99.99,,,0.00,Acu-Link.com,2013-11-15 00:19:00,
2013-11-14 19:34:00,41.2,21.0,30.01,SSW,202,0.0,-999.0,44,-99.99,,,0.00,Acu-Link.com,2013-11-15 00:34:00,
2013-11-14 19:49:00,40.8,21.1,30.01,South,180,2.2,-999.0,45,-99.99,,,0.00,Acu-Link.com,2013-11-15 00:49:00,
2013-11-14 20:05:00,40.8,20.6,30.01,WSW,247,2.2,-999.0,44,-99.99,,,0.00,Acu-Link.com,2013-11-15 01:05:00,
2013-11-14 20:20:00,40.6,20.4,30.01,South,180,2.7,-999.0,44,-99.99,,,0.00,Acu-Link.com,2013-11-15 01:20:00,
2013-11-14 20:35:00,39.6,21.5,30.01,WSW,247,1.7,-999.0,48,-99.99,,,0.00,Acu-Link.com,2013-11-15 01:35:00,
2013-11-14 20:50:00,38.7,21.2,30.02,WSW,247,1.1,-999.0,49,-99.99,,,0.00,Acu-Link.com,2013-11-15 01:50:00,
2013-11-14 21:05:00,38.7,21.7,30.03,West,270,2.2,-999.0,50,-99.99,,,0.00,Acu-Link.com,2013-11-15 02:05:00,
2013-11-14 21:21:00,38.5,21.5,30.02,West,270,1.1,-999.0,50,-99.99,,,0.00,Acu-Link.com,2013-11-15 02:21:00,
2013-11-14 21:36:00,39.0,21.5,30.03,SW,225,2.7,-999.0,49,-99.99,,,0.00,Acu-Link.com,2013-11-15 02:36:00,
2013-11-14 21:51:00,38.8,21.3,30.02,SW,225,2.7,-999.0,49,-99.99,,,0.00,Acu-Link.com,2013-11-15 02:51:00,
2013-11-14 22:06:00,39.2,21.2,30.03,SSW,202,2.2,-999.0,48,-99.99,,,0.00,Acu-Link.com,2013-11-15 03:06:00,
2013-11-14 22:21:00,39.6,21.1,30.03,West,270,3.2,-999.0,47,-99.99,,,0.00,Acu-Link.com,2013-11-15 03:21:00,
2013-11-14 22:37:00,39.7,20.6,30.04,SE,135,3.7,-999.0,46,-99.99,,,0.00,Acu-Link.com,2013-11-15 03:37:00,
2013-11-14 22:52:00,39.6,20.5,30.03,West,270,3.2,-999.0,46,-99.99,,,0.00,Acu-Link.com,2013-11-15 03:52:00,
2013-11-14 23:07:00,39.6,20.0,30.03,SE,135,4.7,-999.0,45,-99.99,,,0.00,Acu-Link.com,2013-11-15 04:07:00,
2013-11-14 23:23:00,39.6,20.0,30.03,SW,225,2.7,-999.0,45,-99.99,,,0.00,Acu-Link.com,2013-11-15 04:23:00,
2013-11-14 23:38:00,39.2,19.7,30.04,SW,225,3.7,-999.0,45,-99.99,,,0.00,Acu-Link.com,2013-11-15 04:38:00,
2013-11-14 23:53:00,39.4,19.3,30.04,South,180,2.2,-999.0,44,-99.99,,,0.00,Acu-Link.com,2013-11-15 04:53:00,